Terminal Aerodrome Forecast
Issued by NWS

Home | Current Version | Previous Version | Text Only | Print | Product List | Glossary Off
Versions: 1 2 3 4 5 6 7 8 9 10 11 12 13 14

000
FTUS43 KGRB 181733
TAFRHI
TAF
KRHI 181733Z 1818/1918 24010G16KT P6SM OVC090
     FM182300 24005KT P6SM SCT010 BKN250
     FM190400 22006KT P6SM BKN008
      TEMPO 1908/1912 3SM BR BKN005
     FM191400 21007G12KT P6SM SCT010 BKN150=

USA.gov is the U.S. government's official web portal to all federal, state and local government web resources and services.